createdAt,value
2022-11-10T00:02:35.453Z,74.06
2022-11-10T00:05:21.176Z,73.37
2022-11-10T00:08:07.634Z,72.94
2022-11-10T00:11:01.311Z,74.84
2022-11-10T00:14:10.964Z,73.47
2022-11-10T00:17:04.392Z,73.10
2022-11-10T00:19:50.546Z,74.12
2022-11-10T00:22:36.958Z,74.06
2022-11-10T00:25:23.573Z,73.36
2022-11-10T00:28:09.248Z,72.25
2022-11-10T00:30:55.066Z,75.41
2022-11-10T00:33:42.099Z,77.47
2022-11-10T00:36:27.784Z,74.81
2022-11-10T00:39:13.516Z,74.56
2022-11-10T00:41:59.169Z,74.87
2022-11-10T00:44:44.907Z,74.36
2022-11-10T00:47:31.528Z,73.61
2022-11-10T00:50:17.526Z,72.76
2022-11-10T00:53:03.357Z,71.94
2022-11-10T00:55:49.143Z,72.15
2022-11-10T00:58:34.928Z,72.59
2022-11-10T01:01:21.630Z,72.76
2022-11-10T01:04:07.990Z,72.14
2022-11-10T01:06:53.838Z,72.69
2022-11-10T01:09:39.943Z,72.49
2022-11-10T01:12:29.652Z,71.96
2022-11-10T01:15:15.712Z,71.61
2022-11-10T01:18:01.335Z,71.45
2022-11-10T01:20:51.357Z,71.88
2022-11-10T01:23:37.438Z,71.91
2022-11-10T01:26:23.360Z,71.76
2022-11-10T01:29:09.157Z,71.13
2022-11-10T01:31:54.887Z,70.81
2022-11-10T01:34:40.921Z,70.86
2022-11-10T01:37:27.315Z,71.66
2022-11-10T01:40:13.263Z,72.76
2022-11-10T01:42:59.281Z,73.20
2022-11-10T01:45:55.515Z,75.07
2022-11-10T01:48:47.876Z,74.31
2022-11-10T01:51:44.758Z,73.67
2022-11-10T01:54:32.505Z,73.69
2022-11-10T01:57:18.128Z,72.82
2022-11-10T02:00:04.472Z,75.33
2022-11-10T02:02:54.478Z,74.43
2022-11-10T02:05:40.152Z,74.23
2022-11-10T02:08:26.055Z,73.89
2022-11-10T02:11:12.051Z,73.79
2022-11-10T02:13:57.999Z,74.43
2022-11-10T02:16:43.651Z,74.37
2022-11-10T02:19:29.665Z,77.50
2022-11-10T02:22:15.369Z,76.57
2022-11-10T02:25:01.308Z,75.55
2022-11-10T02:27:47.023Z,76.70
2022-11-10T02:30:33.147Z,76.26
2022-11-10T02:33:19.041Z,75.92
2022-11-10T02:36:05.098Z,76.57
2022-11-10T02:38:50.671Z,76.50
2022-11-10T02:41:36.215Z,76.72
2022-11-10T02:44:21.952Z,78.86
2022-11-10T02:47:07.617Z,77.95
2022-11-10T02:49:53.558Z,78.22
2022-11-10T02:52:39.344Z,77.69
2022-11-10T02:55:25.025Z,77.29
2022-11-10T02:58:10.870Z,76.42
2022-11-10T03:00:56.639Z,78.71
2022-11-10T03:03:42.797Z,77.04
2022-11-10T03:06:28.565Z,78.21
2022-11-10T03:09:14.074Z,78.02
2022-11-10T03:11:59.854Z,77.39
2022-11-10T03:14:45.537Z,78.05
2022-11-10T03:17:31.328Z,77.23
2022-11-10T03:20:17.079Z,77.71
2022-11-10T03:23:04.109Z,78.30
2022-11-10T03:25:50.583Z,78.21
2022-11-10T03:28:36.530Z,79.66
2022-11-10T03:31:22.231Z,78.25
2022-11-10T03:34:08.082Z,81.32
2022-11-10T03:36:53.856Z,82.74
2022-11-10T03:39:39.861Z,80.60
2022-11-10T03:42:25.771Z,78.59
2022-11-10T03:45:12.092Z,82.18
2022-11-10T03:47:57.569Z,82.61
2022-11-10T03:50:43.605Z,81.83
2022-11-10T03:53:29.298Z,80.47
2022-11-10T03:56:14.914Z,79.08
2022-11-10T03:59:00.616Z,80.77
2022-11-10T04:01:46.273Z,82.56
2022-11-10T04:04:50.831Z,80.06
2022-11-10T04:07:55.896Z,83.03
2022-11-10T04:10:41.982Z,79.24
2022-11-10T04:13:46.685Z,81.82
2022-11-10T04:16:32.719Z,82.14
2022-11-10T04:19:18.456Z,82.27
2022-11-10T04:22:04.147Z,79.59
2022-11-10T04:24:49.971Z,80.95
2022-11-10T04:27:35.636Z,82.41
2022-11-10T04:30:21.364Z,83.72
2022-11-10T04:33:07.016Z,84.30
2022-11-10T04:35:52.578Z,82.92
2022-11-10T04:38:38.700Z,82.77
2022-11-10T04:41:25.374Z,85.26
2022-11-10T04:44:10.930Z,84.12
2022-11-10T04:46:56.936Z,79.11
2022-11-10T04:49:42.552Z,78.34
2022-11-10T04:52:28.317Z,80.93
2022-11-10T04:55:13.893Z,78.58
2022-11-10T04:57:59.471Z,80.52
2022-11-10T05:00:45.476Z,79.42
2022-11-10T05:03:31.488Z,78.15
2022-11-10T05:06:18.344Z,78.59
2022-11-10T05:09:04.128Z,82.80
2022-11-10T05:11:49.712Z,79.39
2022-11-10T05:14:35.687Z,80.43
2022-11-10T05:17:22.349Z,79.79
2022-11-10T05:20:08.182Z,78.16
2022-11-10T05:23:12.192Z,77.10
2022-11-10T05:25:58.213Z,77.90
2022-11-10T05:28:45.167Z,77.55
2022-11-10T05:31:31.326Z,77.13
2022-11-10T05:34:16.925Z,78.66
2022-11-10T05:37:02.697Z,77.19
2022-11-10T05:39:48.513Z,79.24
2022-11-10T05:42:34.223Z,78.46
2022-11-10T05:45:23.880Z,79.44
2022-11-10T05:48:09.863Z,79.43
2022-11-10T05:50:55.463Z,78.54
2022-11-10T05:53:41.589Z,79.00
2022-11-10T05:56:27.218Z,78.19
2022-11-10T05:59:12.863Z,76.98
2022-11-10T06:01:58.483Z,78.11
2022-11-10T06:04:44.460Z,77.91
2022-11-10T06:07:30.470Z,78.65
2022-11-10T06:10:16.447Z,78.19
2022-11-10T06:13:02.654Z,79.85
2022-11-10T06:15:50.565Z,78.29
2022-11-10T06:18:36.788Z,79.58
2022-11-10T06:21:22.431Z,80.66
2022-11-10T06:24:08.363Z,79.32
2022-11-10T06:26:53.996Z,78.49
2022-11-10T06:29:39.603Z,78.18
2022-11-10T06:32:25.333Z,76.18
2022-11-10T06:35:11.223Z,76.42
2022-11-10T06:38:04.563Z,77.87
2022-11-10T06:40:50.580Z,78.09
2022-11-10T06:43:36.508Z,76.76
2022-11-10T06:46:22.273Z,74.91
2022-11-10T06:49:08.212Z,75.66
2022-11-10T06:51:53.819Z,74.40
2022-11-10T06:54:39.570Z,73.80
2022-11-10T06:57:25.612Z,74.85
2022-11-10T07:00:11.954Z,73.87
2022-11-10T07:03:05.438Z,72.85
2022-11-10T07:05:51.376Z,73.49
2022-11-10T07:08:37.589Z,73.16
2022-11-10T07:11:23.487Z,72.85
2022-11-10T07:14:09.573Z,75.32
2022-11-10T07:16:55.419Z,73.50
2022-11-10T07:19:41.281Z,73.38
2022-11-10T07:22:26.881Z,77.24
2022-11-10T07:25:12.522Z,74.80
2022-11-10T07:28:00.094Z,78.69
2022-11-10T07:30:46.217Z,76.57
2022-11-10T07:33:31.844Z,77.82
2022-11-10T07:36:17.646Z,75.31
2022-11-10T07:39:03.533Z,74.49
2022-11-10T07:41:52.488Z,75.89
2022-11-10T07:44:38.867Z,76.19
2022-11-10T07:47:24.833Z,75.90
2022-11-10T07:50:10.690Z,77.45
2022-11-10T07:53:16.360Z,75.52
2022-11-10T07:56:02.255Z,76.96
2022-11-10T07:58:48.351Z,78.27
2022-11-10T08:01:35.552Z,76.21
2022-11-10T08:04:22.719Z,75.26
2022-11-10T08:07:09.237Z,75.06
2022-11-10T08:09:55.381Z,75.19
2022-11-10T08:12:41.281Z,74.83
2022-11-10T08:15:27.492Z,73.23
2022-11-10T08:18:16.878Z,72.64
2022-11-10T08:21:03.336Z,75.06
2022-11-10T08:23:49.459Z,72.42
2022-11-10T08:26:35.424Z,72.44
2022-11-10T08:29:21.253Z,73.06
2022-11-10T08:32:06.835Z,73.81
2022-11-10T08:34:52.586Z,73.00
2022-11-10T08:37:38.369Z,70.56
2022-11-10T08:40:25.025Z,72.64
2022-11-10T08:43:11.759Z,70.83
2022-11-10T08:45:57.899Z,73.23
2022-11-10T08:48:43.630Z,72.32
2022-11-10T08:51:30.952Z,72.00
2022-11-10T08:54:19.846Z,69.23
2022-11-10T08:57:06.266Z,69.41
2022-11-10T08:59:52.104Z,68.34
2022-11-10T09:02:37.932Z,70.16
2022-11-10T09:05:23.616Z,69.56
2022-11-10T09:08:14.379Z,70.86
2022-11-10T09:11:02.452Z,68.20
2022-11-10T09:13:48.208Z,68.81
2022-11-10T09:16:34.021Z,70.82
2022-11-10T09:19:20.381Z,67.34
2022-11-10T09:22:06.078Z,68.66
2022-11-10T09:24:51.988Z,68.44
2022-11-10T09:27:38.263Z,69.63
2022-11-10T09:30:23.884Z,69.48
2022-11-10T09:33:09.998Z,70.35
2022-11-10T09:36:02.789Z,68.79
2022-11-10T09:38:48.666Z,68.61
2022-11-10T09:41:38.161Z,68.52
2022-11-10T09:44:26.527Z,68.37
2022-11-10T09:47:56.892Z,68.26
2022-11-10T09:50:48.762Z,68.39
2022-11-10T09:53:41.722Z,68.39
2022-11-10T09:56:35.117Z,67.41
2022-11-10T09:59:26.221Z,66.97
2022-11-10T10:02:50.453Z,66.78
2022-11-10T10:06:02.547Z,67.46
2022-11-10T10:08:51.695Z,67.66
2022-11-10T10:11:49.166Z,72.02
2022-11-10T10:14:42.458Z,69.68
2022-11-10T10:17:38.314Z,73.52
2022-11-10T10:20:45.157Z,70.77
2022-11-10T10:24:07.733Z,72.57
2022-11-10T10:26:50.956Z,72.15
2022-11-10T10:29:43.258Z,71.90
2022-11-10T10:32:29.224Z,68.85
2022-11-10T10:35:16.344Z,68.19
2022-11-10T10:38:03.748Z,70.85
2022-11-10T10:40:51.020Z,69.40
2022-11-10T10:43:36.853Z,68.08
2022-11-10T10:46:28.401Z,71.52
2022-11-10T10:49:31.498Z,68.93
2022-11-10T10:52:18.216Z,68.44
2022-11-10T10:55:08.048Z,70.75
2022-11-10T10:58:00.904Z,69.86
2022-11-10T11:00:51.783Z,69.00
2022-11-10T11:03:44.474Z,67.84
2022-11-10T11:06:33.819Z,68.94
2022-11-10T11:09:24.276Z,68.87
2022-11-10T11:12:13.053Z,66.16
2022-11-10T11:15:26.611Z,66.88
2022-11-10T11:18:17.245Z,68.25
2022-11-10T11:21:33.620Z,67.69
2022-11-10T11:24:25.271Z,67.13
2022-11-10T11:27:36.278Z,67.59
2022-11-10T11:30:23.527Z,67.12
2022-11-10T11:33:15.034Z,69.87
2022-11-10T11:36:30.428Z,68.65
2022-11-10T11:39:28.750Z,67.79
2022-11-10T11:42:28.951Z,67.74
2022-11-10T11:45:21.938Z,68.26
2022-11-10T11:48:42.449Z,69.79
2022-11-10T11:51:50.097Z,70.17
2022-11-10T11:55:10.976Z,68.28
2022-11-10T11:58:20.079Z,69.38
2022-11-10T12:01:24.500Z,68.03
2022-11-10T12:04:43.018Z,69.76
2022-11-10T12:07:45.133Z,68.54
2022-11-10T12:10:47.821Z,68.53
2022-11-10T12:13:53.480Z,68.64
2022-11-10T12:16:39.341Z,70.33
2022-11-10T12:19:37.317Z,70.53
2022-11-10T12:22:39.652Z,69.60
2022-11-10T12:25:32.602Z,70.91
2022-11-10T12:28:24.105Z,71.35
2022-11-10T12:31:14.525Z,69.46
2022-11-10T12:34:06.084Z,70.31
2022-11-10T12:36:51.752Z,71.45
2022-11-10T12:39:53.892Z,70.37
2022-11-10T12:42:39.642Z,69.25
2022-11-10T12:45:35.405Z,71.58
2022-11-10T12:48:21.714Z,71.01
2022-11-10T12:51:21.803Z,72.18
2022-11-10T12:54:16.323Z,70.77
2022-11-10T12:57:13.720Z,71.37
2022-11-10T13:00:05.073Z,71.84
2022-11-10T13:02:50.897Z,72.64
2022-11-10T13:05:42.011Z,72.19
2022-11-10T13:08:32.848Z,72.99
2022-11-10T13:11:18.256Z,74.11
2022-11-10T13:14:04.448Z,71.67
2022-11-10T13:16:52.336Z,72.64
2022-11-10T13:19:39.129Z,72.53
2022-11-10T13:22:31.757Z,73.28
2022-11-10T13:25:36.067Z,72.36
2022-11-10T13:28:47.144Z,73.47
2022-11-10T13:31:33.039Z,73.19
2022-11-10T13:34:18.899Z,73.65
2022-11-10T13:37:29.412Z,72.34
2022-11-10T13:40:24.289Z,72.55
2022-11-10T13:43:13.073Z,72.64
2022-11-10T13:46:00.022Z,71.51
2022-11-10T13:49:01.584Z,70.80
2022-11-10T13:51:56.219Z,72.19
2022-11-10T13:55:20.260Z,71.29
2022-11-10T13:58:09.361Z,72.78
2022-11-10T14:01:17.047Z,71.82
2022-11-10T14:04:03.048Z,72.89
2022-11-10T14:06:50.590Z,72.33
2022-11-10T14:09:41.314Z,73.66
2022-11-10T14:12:46.445Z,71.92
2022-11-10T14:15:39.378Z,70.76
2022-11-10T14:18:27.093Z,72.11
2022-11-10T14:21:42.487Z,74.31
2022-11-10T14:24:39.270Z,72.65
2022-11-10T14:27:29.759Z,71.29
2022-11-10T14:30:21.698Z,72.53
2022-11-10T14:33:11.117Z,73.86
2022-11-10T14:36:01.319Z,73.07
2022-11-10T14:38:47.135Z,72.49
2022-11-10T14:41:33.147Z,72.98
2022-11-10T14:44:24.226Z,72.36
2022-11-10T14:47:31.078Z,73.45
2022-11-10T14:50:19.509Z,74.23
2022-11-10T14:53:15.888Z,73.32
2022-11-10T14:56:02.431Z,70.81
2022-11-10T14:58:48.384Z,74.16
2022-11-10T15:01:36.816Z,74.14
2022-11-10T15:04:33.276Z,72.48
2022-11-10T15:07:18.902Z,71.63
2022-11-10T15:10:05.661Z,71.89
2022-11-10T15:13:06.414Z,73.14
2022-11-10T15:15:53.629Z,75.92
2022-11-10T15:18:39.595Z,73.22
2022-11-10T15:21:30.370Z,71.96
2022-11-10T15:24:16.055Z,71.34
2022-11-10T15:27:01.872Z,71.63
2022-11-10T15:29:48.006Z,69.93
2022-11-10T15:32:35.246Z,71.30
2022-11-10T15:35:23.709Z,73.81
2022-11-10T15:38:09.242Z,75.00
2022-11-10T15:41:12.761Z,74.84
2022-11-10T15:44:22.234Z,73.02
2022-11-10T15:47:10.267Z,71.71
2022-11-10T15:49:56.124Z,70.05
2022-11-10T15:52:42.113Z,71.42
2022-11-10T15:55:29.681Z,72.30
2022-11-10T15:58:17.129Z,70.47
2022-11-10T16:01:03.405Z,70.49
2022-11-10T16:03:49.327Z,70.65
2022-11-10T16:06:35.440Z,70.74
2022-11-10T16:09:21.376Z,70.53
2022-11-10T16:12:13.217Z,72.79
2022-11-10T16:14:59.687Z,72.76
2022-11-10T16:17:45.645Z,74.75
2022-11-10T16:20:31.192Z,71.80
2022-11-10T16:23:17.117Z,73.82
2022-11-10T16:26:03.354Z,72.33
2022-11-10T16:28:49.089Z,73.62
2022-11-10T16:31:35.090Z,72.58
2022-11-10T16:34:20.771Z,71.48
2022-11-10T16:37:06.543Z,75.37
2022-11-10T16:39:52.172Z,75.64
2022-11-10T16:42:37.848Z,76.56
2022-11-10T16:45:24.417Z,76.46
2022-11-10T16:48:13.566Z,74.90
2022-11-10T16:50:59.500Z,74.32
2022-11-10T16:53:45.677Z,75.99
2022-11-10T16:56:31.497Z,75.80
2022-11-10T16:59:17.312Z,73.93
2022-11-10T17:02:03.037Z,76.92
2022-11-10T17:04:48.749Z,75.12
2022-11-10T17:07:34.911Z,75.23
2022-11-10T17:10:20.652Z,74.50
2022-11-10T17:13:08.652Z,75.10
2022-11-10T17:15:57.683Z,74.91
2022-11-10T17:18:43.470Z,73.76
2022-11-10T17:21:32.826Z,77.50
2022-11-10T17:24:18.927Z,76.70
2022-11-10T17:27:04.777Z,75.09
2022-11-10T17:29:50.768Z,77.13
2022-11-10T17:33:03.184Z,78.41
2022-11-10T17:35:42.353Z,76.85
2022-11-10T17:38:29.004Z,77.12
2022-11-10T17:41:19.023Z,75.98
2022-11-10T17:44:04.827Z,77.28
2022-11-10T17:46:50.802Z,75.72
2022-11-10T17:49:36.584Z,76.10
2022-11-10T17:52:22.553Z,77.32
2022-11-10T17:55:23.524Z,79.02
2022-11-10T17:58:10.087Z,78.11
2022-11-10T18:00:56.087Z,79.48
2022-11-10T18:03:41.758Z,76.06
2022-11-10T18:06:27.535Z,78.04
2022-11-10T18:09:13.304Z,78.58
2022-11-10T18:11:58.931Z,79.37
2022-11-10T18:14:44.637Z,78.68
2022-11-10T18:17:30.309Z,77.26
2022-11-10T18:20:16.508Z,76.82
2022-11-10T18:23:02.370Z,77.42
2022-11-10T18:25:48.065Z,76.52
2022-11-10T18:28:34.598Z,81.02
2022-11-10T18:31:20.325Z,80.41
2022-11-10T18:34:06.062Z,78.77
2022-11-10T18:36:52.328Z,82.69
2022-11-10T18:39:38.114Z,81.40
2022-11-10T18:42:24.589Z,81.34
2022-11-10T18:45:11.146Z,79.33
2022-11-10T18:48:01.141Z,79.91
2022-11-10T18:50:46.928Z,80.28
2022-11-10T18:53:37.910Z,81.26
2022-11-10T18:56:25.090Z,79.55
2022-11-10T18:59:10.978Z,79.12
2022-11-10T19:01:56.819Z,78.05
2022-11-10T19:04:42.784Z,79.20
2022-11-10T19:07:29.220Z,80.08
2022-11-10T19:10:15.320Z,78.82
2022-11-10T19:13:01.206Z,77.45
2022-11-10T19:15:46.873Z,77.56
2022-11-10T19:18:32.537Z,78.14
2022-11-10T19:21:19.949Z,77.48
2022-11-10T19:24:06.063Z,76.22
2022-11-10T19:26:52.021Z,77.05
2022-11-10T19:29:37.807Z,76.48
2022-11-10T19:32:25.005Z,76.60
2022-11-10T19:35:13.300Z,75.94
2022-11-10T19:37:58.918Z,76.82
2022-11-10T19:40:45.218Z,77.34
2022-11-10T19:43:31.085Z,76.92
2022-11-10T19:46:18.192Z,78.38
2022-11-10T19:49:04.269Z,78.88
2022-11-10T19:51:50.509Z,78.03
2022-11-10T19:54:36.445Z,78.64
2022-11-10T19:57:23.172Z,77.34
2022-11-10T20:00:12.346Z,79.28
2022-11-10T20:02:58.208Z,78.16
2022-11-10T20:05:46.221Z,78.28
2022-11-10T20:08:32.281Z,77.28
2022-11-10T20:11:22.046Z,78.58
2022-11-10T20:14:07.542Z,79.86
2022-11-10T20:16:53.465Z,77.35
2022-11-10T20:19:41.129Z,77.85
2022-11-10T20:22:27.528Z,80.17
2022-11-10T20:25:13.492Z,79.26
2022-11-10T20:28:01.295Z,80.86
2022-11-10T20:30:46.989Z,82.27
2022-11-10T20:33:32.820Z,79.49
2022-11-10T20:36:26.217Z,78.00
2022-11-10T20:39:11.986Z,81.19
2022-11-10T20:41:57.650Z,81.11
2022-11-10T20:44:43.392Z,79.34
2022-11-10T20:47:29.392Z,76.79
2022-11-10T20:50:19.208Z,76.30
2022-11-10T20:53:07.621Z,77.36
2022-11-10T20:55:57.945Z,78.00
2022-11-10T20:58:45.064Z,76.42
2022-11-10T21:01:30.866Z,76.11
2022-11-10T21:04:17.011Z,76.75
2022-11-10T21:07:02.723Z,79.03
2022-11-10T21:09:48.732Z,80.08
2022-11-10T21:12:49.978Z,78.25
2022-11-10T21:15:38.125Z,78.86
2022-11-10T21:18:28.226Z,80.44
2022-11-10T21:21:34.354Z,81.43
2022-11-10T21:24:20.873Z,81.53
2022-11-10T21:27:06.755Z,78.67
2022-11-10T21:29:52.871Z,80.28
2022-11-10T21:32:38.916Z,78.68
2022-11-10T21:35:25.500Z,78.90
2022-11-10T21:38:12.169Z,78.14
2022-11-10T21:40:57.868Z,77.50
2022-11-10T21:43:43.416Z,78.11
2022-11-10T21:46:29.269Z,79.80
2022-11-10T21:49:15.119Z,78.85
2022-11-10T21:52:00.911Z,77.02
2022-11-10T21:54:46.670Z,77.46
2022-11-10T21:57:32.356Z,77.23
2022-11-10T22:00:18.275Z,78.48
2022-11-10T22:03:03.963Z,78.21
2022-11-10T22:05:49.514Z,76.98
2022-11-10T22:08:35.806Z,76.71
2022-11-10T22:11:40.444Z,77.71
2022-11-10T22:14:45.181Z,78.90
2022-11-10T22:17:50.654Z,78.36
2022-11-10T22:20:36.572Z,78.45
2022-11-10T22:23:42.189Z,79.79
2022-11-10T22:26:28.032Z,82.46
2022-11-10T22:29:13.800Z,80.84
2022-11-10T22:32:00.592Z,82.00
2022-11-10T22:34:46.489Z,81.84
2022-11-10T22:37:33.158Z,81.70
2022-11-10T22:40:38.126Z,81.45
2022-11-10T22:43:42.928Z,81.64
2022-11-10T22:46:28.889Z,81.78
2022-11-10T22:49:15.531Z,81.21
2022-11-10T22:52:01.379Z,81.31
2022-11-10T22:54:47.042Z,81.17
2022-11-10T22:57:32.787Z,79.49
2022-11-10T23:00:18.482Z,79.50
2022-11-10T23:03:04.291Z,78.17
2022-11-10T23:05:55.933Z,75.98
2022-11-10T23:08:43.361Z,76.31
2022-11-10T23:11:30.580Z,76.82
2022-11-10T23:14:16.629Z,75.50
2022-11-10T23:17:02.540Z,75.33
2022-11-10T23:19:48.288Z,76.57
2022-11-10T23:22:34.259Z,76.25
2022-11-10T23:25:20.088Z,76.13
2022-11-10T23:28:05.746Z,76.31
2022-11-10T23:30:51.519Z,76.27
2022-11-10T23:33:37.743Z,77.68
2022-11-10T23:36:23.822Z,76.10
2022-11-10T23:39:09.526Z,74.45
2022-11-10T23:41:55.596Z,75.55
2022-11-10T23:44:41.707Z,78.13
2022-11-10T23:47:27.525Z,78.64
2022-11-10T23:50:13.270Z,76.01
2022-11-10T23:52:59.540Z,78.31
2022-11-10T23:55:45.550Z,78.18
2022-11-10T23:58:31.808Z,78.22
